Time;durP1;ratioP1;P1;durP2;ratioP2;P2;SDS_P1;SDS_P2;PMS_P1;PMS_P2;Temp;Humidity;BMP_temperature;BMP_pressure;BME280_temperature;BME280_humidity;BME280_pressure;Samples;Min_cycle;Max_cycle;Signal;HPM_P1;HPM_P2
2023/01/14 00:02:37;;;;;;;20.23;4.77;;;8.10;99.90;;;;;;2615340;54;20507;-71
2023/01/14 00:12:01;;;;;;;18.70;5.33;;;8.00;99.90;;;;;;2614092;54;20383;-69
2023/01/14 00:17:48;;;;;;;25.97;6.17;;;8.00;99.90;;;;;;2613198;54;20157;-70
2023/01/14 00:23:36;;;;;;;16.83;5.03;;;8.10;99.90;;;;;;2614143;54;20176;-72
2023/01/14 00:36:13;;;;;;;15.90;4.60;;;8.00;99.90;;;;;;2612074;54;20399;-69
2023/01/14 00:42:01;;;;;;;23.63;5.87;;;8.00;99.90;;;;;;2613138;54;20387;-69
2023/01/14 00:47:48;;;;;;;14.47;5.43;;;7.90;99.90;;;;;;2613977;54;20203;-69
2023/01/14 00:53:37;;;;;;;22.00;5.00;;;7.90;99.90;;;;;;2613937;54;20144;-69
2023/01/14 00:59:24;;;;;;;14.83;4.67;;;8.00;99.90;;;;;;2613288;54;20367;-70
2023/01/14 01:05:11;;;;;;;19.30;5.50;;;8.00;99.90;;;;;;2612476;54;20129;-70
2023/01/14 01:10:59;;;;;;;17.47;5.90;;;8.00;99.90;;;;;;2614909;39;20533;-70
2023/01/14 01:16:46;;;;;;;13.63;4.50;;;8.00;99.90;;;;;;2613928;39;20798;-69
2023/01/14 01:22:34;;;;;;;13.90;5.30;;;8.00;99.90;;;;;;2615092;54;20154;-70
2023/01/14 01:28:22;;;;;;;11.97;3.23;;;8.00;99.90;;;;;;2615143;54;20155;-69
2023/01/14 01:31:25;;;;;;;9.23;3.90;;;8.00;99.90;;;;;;2613319;54;20427;-71
2023/01/14 01:33:51;;;;;;;10.87;5.80;;;7.90;99.90;;;;;;2613985;54;20213;-69
2023/01/14 01:39:39;;;;;;;16.83;4.40;;;7.90;99.90;;;;;;2615071;54;20398;-70
2023/01/14 01:45:45;;;;;;;8.33;3.90;;;7.90;99.90;;;;;;2614351;39;20512;-71
2023/01/14 01:51:39;;;;;;;16.10;5.60;;;7.90;99.90;;;;;;2614129;54;20418;-69
2023/01/14 01:57:28;;;;;;;13.57;5.10;;;7.80;99.90;;;;;;2614947;54;20416;-73
2023/01/14 02:20:46;;;;;;;19.53;4.80;;;7.40;99.90;;;;;;2614671;54;20359;-70
2023/01/14 02:33:13;;;;;;;33.07;5.17;;;7.10;99.90;;;;;;2614005;54;20374;-69
2023/01/14 02:45:41;;;;;;;16.47;5.90;;;7.10;99.90;;;;;;2613739;39;20546;-70
2023/01/14 02:51:30;;;;;;;14.07;3.73;;;6.80;99.90;;;;;;2614699;54;20382;-70
2023/01/14 03:13:28;;;;;;;26.17;6.00;;;7.00;99.90;;;;;;2615519;54;20402;-70
2023/01/14 03:22:48;;;;;;;21.80;5.80;;;6.90;99.90;;;;;;2613730;54;20390;-70
2023/01/14 03:25:16;;;;;;;36.33;7.20;;;6.90;99.90;;;;;;2612792;47;20414;-69
2023/01/14 03:31:08;;;;;;;17.53;6.30;;;7.00;99.90;;;;;;2613881;54;20791;-70
2023/01/14 03:36:57;;;;;;;14.57;4.50;;;6.90;99.90;;;;;;2613410;54;20419;-70
2023/01/14 03:48:57;;;;;;;23.47;7.23;;;6.80;99.90;;;;;;2612895;46;20454;-71
2023/01/14 04:07:25;;;;;;;17.77;6.83;;;6.70;99.90;;;;;;2615699;54;20436;-73
2023/01/14 04:16:33;;;;;;;16.80;4.60;;;6.80;99.90;;;;;;2614081;54;20427;-73
2023/01/14 04:22:21;;;;;;;19.37;5.13;;;6.80;99.90;;;;;;2615531;54;20391;-73
2023/01/14 04:28:08;;;;;;;13.17;4.30;;;6.80;99.90;;;;;;2615759;54;20154;-74
2023/01/14 04:33:56;;;;;;;10.63;4.10;;;6.80;99.90;;;;;;2614892;54;20131;-72
2023/01/14 04:39:43;;;;;;;19.33;5.87;;;6.90;99.90;;;;;;2615675;54;20192;-72
2023/01/14 04:45:31;;;;;;;14.37;5.67;;;6.90;99.90;;;;;;2614963;54;20139;-73
2023/01/14 04:51:19;;;;;;;25.33;7.60;;;6.80;99.90;;;;;;2615832;54;20127;-72
2023/01/14 04:57:06;;;;;;;30.70;6.80;;;6.80;99.90;;;;;;2615708;54;20178;-72
2023/01/14 05:02:54;;;;;;;19.67;5.93;;;6.80;99.90;;;;;;2615106;54;20165;-73
2023/01/14 05:08:42;;;;;;;15.13;5.03;;;6.80;99.90;;;;;;2615254;54;20131;-73
2023/01/14 05:12:00;;;;;;;24.13;5.30;;;6.80;99.90;;;;;;2615044;54;20912;-74
2023/01/14 05:14:26;;;;;;;20.27;5.60;;;6.70;99.90;;;;;;2615561;54;20151;-73
2023/01/14 05:20:14;;;;;;;16.97;5.97;;;6.70;99.90;;;;;;2614697;54;20362;-73
2023/01/14 05:26:02;;;;;;;28.33;6.80;;;6.70;99.90;;;;;;2615437;54;20134;-72
2023/01/14 05:31:52;;;;;;;31.20;6.07;;;6.80;99.90;;;;;;2613855;54;20683;-72
2023/01/14 05:37:43;;;;;;;15.77;5.40;;;6.90;99.90;;;;;;2615598;54;20945;-73
2023/01/14 05:49:37;;;;;;;18.10;4.90;;;6.90;99.90;;;;;;2614475;54;20944;-71
2023/01/14 05:55:25;;;;;;;18.47;4.63;;;6.90;99.90;;;;;;2615376;54;20130;-72
2023/01/14 06:07:20;;;;;;;21.27;7.27;;;6.90;99.90;;;;;;2616376;39;20770;-73
2023/01/14 06:16:39;;;;;;;21.20;5.20;;;7.00;99.90;;;;;;2613165;54;20395;-71
2023/01/14 06:22:27;;;;;;;20.60;5.40;;;7.10;99.90;;;;;;2616001;31;20908;-72
2023/01/14 06:28:16;;;;;;;11.50;4.13;;;7.10;99.90;;;;;;2615571;54;20147;-71
2023/01/14 06:34:04;;;;;;;12.23;4.97;;;7.00;99.90;;;;;;2613873;47;20979;-71
2023/01/14 06:39:52;;;;;;;13.70;4.50;;;7.00;99.90;;;;;;2614868;54;20278;-72
2023/01/14 06:45:40;;;;;;;9.37;3.63;;;7.00;99.90;;;;;;2615139;54;20129;-72
2023/01/14 06:51:30;;;;;;;26.03;6.00;;;7.00;99.90;;;;;;2614664;54;20123;-71
2023/01/14 06:57:19;;;;;;;14.53;4.60;;;7.20;99.90;;;;;;2614106;54;20536;-71
2023/01/14 07:03:07;;;;;;;28.17;4.70;;;7.30;99.90;;;;;;2614705;54;20399;-72
2023/01/14 07:08:55;;;;;;;12.00;4.00;;;7.30;99.90;;;;;;2613828;54;20159;-71
2023/01/14 07:12:00;;;;;;;10.23;3.70;;;7.40;99.90;;;;;;2613570;54;20412;-72
2023/01/14 07:14:26;;;;;;;10.33;4.17;;;7.50;99.90;;;;;;2615140;54;20151;-72
2023/01/14 07:20:14;;;;;;;8.33;5.03;;;7.50;99.90;;;;;;2614619;54;20151;-71
2023/01/14 07:26:02;;;;;;;14.60;7.00;;;7.60;99.90;;;;;;2614423;54;20375;-72
2023/01/14 07:29:05;;;;;;;8.33;3.80;;;7.60;99.90;;;;;;2612815;54;20403;-71
2023/01/14 07:31:31;;;;;;;10.90;5.00;;;7.60;99.90;;;;;;2614657;54;20171;-71
2023/01/14 07:37:18;;;;;;;9.60;2.70;;;7.40;99.90;;;;;;2613479;54;20130;-71
2023/01/14 07:43:07;;;;;;;12.27;3.50;;;7.20;99.90;;;;;;2612931;54;20263;-72
2023/01/14 07:48:54;;;;;;;18.53;4.20;;;7.10;99.90;;;;;;2614425;39;20770;-73
2023/01/14 07:54:43;;;;;;;15.33;4.40;;;7.00;99.90;;;;;;2613339;54;20732;-71
2023/01/14 08:00:31;;;;;;;12.63;4.43;;;6.90;99.90;;;;;;2614562;54;20374;-71
2023/01/14 08:06:19;;;;;;;10.23;3.97;;;6.80;99.90;;;;;;2615314;54;20239;-72
2023/01/14 08:18:50;;;;;;;18.40;3.77;;;6.60;99.90;;;;;;2613481;54;20399;-73
2023/01/14 08:24:39;;;;;;;10.23;3.50;;;6.60;99.90;;;;;;2613260;54;20212;-72
2023/01/14 08:30:28;;;;;;;9.67;2.90;;;6.60;99.90;;;;;;2613984;54;20394;-72
2023/01/14 08:36:18;;;;;;;12.23;4.13;;;6.60;99.90;;;;;;2614219;54;20991;-73
2023/01/14 08:42:05;;;;;;;12.60;3.77;;;6.60;99.90;;;;;;2613967;54;20428;-73
2023/01/14 08:47:53;;;;;;;9.80;3.47;;;6.70;99.90;;;;;;2612878;54;20189;-73
2023/01/14 08:53:41;;;;;;;11.80;4.50;;;6.70;99.90;;;;;;2615390;54;20147;-73
2023/01/14 08:59:29;;;;;;;18.07;3.77;;;6.80;99.90;;;;;;2614376;39;20841;-71
2023/01/14 09:05:16;;;;;;;12.03;3.20;;;6.90;99.90;;;;;;2614184;54;20150;-73
2023/01/14 09:17:20;;;;;;;19.20;4.97;;;7.10;99.90;;;;;;2614579;54;20400;-72
2023/01/14 09:23:09;;;;;;;6.00;2.83;;;7.10;99.90;;;;;;2614913;54;20395;-73
2023/01/14 09:28:57;;;;;;;9.00;3.80;;;7.40;99.90;;;;;;2615325;54;20375;-72
2023/01/14 09:34:52;;;;;;;10.27;4.83;;;7.50;99.90;;;;;;2615324;54;20149;-72
2023/01/14 09:40:40;;;;;;;8.23;3.10;;;7.60;99.90;;;;;;2615298;54;20395;-71
2023/01/14 09:46:28;;;;;;;7.63;2.10;;;7.60;99.90;;;;;;2614039;54;20428;-72
2023/01/14 09:59:06;;;;;;;7.50;2.43;;;7.80;99.90;;;;;;2615040;54;20921;-73
2023/01/14 10:11:32;;;;;;;9.83;2.43;;;8.00;99.90;;;;;;2614201;54;20461;-72
2023/01/14 10:17:24;;;;;;;5.20;2.17;;;8.30;99.90;;;;;;2613695;54;20447;-72
2023/01/14 10:20:37;;;;;;;4.13;2.10;;;8.30;99.90;;;;;;2614175;31;20817;-72
2023/01/14 10:26:31;;;;;;;6.00;2.50;;;8.10;99.90;;;;;;2614813;54;20952;-74
2023/01/14 10:32:20;;;;;;;4.00;1.80;;;7.90;99.90;;;;;;2614601;54;20753;-72
2023/01/14 10:44:44;;;;;;;3.20;1.33;;;7.90;99.90;;;;;;2614074;54;20415;-71
2023/01/14 10:50:32;;;;;;;6.67;1.77;;;7.90;99.90;;;;;;2614589;54;20382;-73
2023/01/14 10:56:27;;;;;;;8.30;2.60;;;7.90;99.90;;;;;;2614918;54;20391;-72
2023/01/14 11:08:48;;;;;;;5.80;2.17;;;7.70;99.90;;;;;;2614951;54;20501;-73
2023/01/14 11:14:37;;;;;;;5.93;1.70;;;7.50;99.90;;;;;;2616041;54;21259;-72
2023/01/14 11:20:27;;;;;;;5.00;1.47;;;7.60;99.90;;;;;;2616234;54;20427;-73
2023/01/14 11:26:23;;;;;;;4.00;1.40;;;7.70;99.90;;;;;;2615572;54;20380;-73
2023/01/14 11:32:13;;;;;;;3.53;1.47;;;7.70;99.90;;;;;;2614579;54;20532;-74
2023/01/14 11:38:04;;;;;;;3.90;1.80;;;7.80;99.90;;;;;;2616519;54;20395;-75
2023/01/14 11:43:54;;;;;;;4.93;1.60;;;7.80;99.90;;;;;;2615616;54;20414;-74
2023/01/14 11:49:41;;;;;;;3.30;1.77;;;7.90;99.90;;;;;;2615362;54;20395;-74
2023/01/14 11:55:38;;;;;;;5.60;2.37;;;8.00;99.90;;;;;;2615720;54;20150;-75
2023/01/14 12:01:43;;;;;;;3.77;1.60;;;7.90;99.90;;;;;;2616299;54;20398;-73
2023/01/14 12:20:22;;;;;;;4.90;2.50;;;8.10;99.90;;;;;;2614420;54;20419;-74
2023/01/14 12:26:20;;;;;;;3.50;1.63;;;8.20;99.90;;;;;;2616479;54;20371;-72
2023/01/14 12:32:20;;;;;;;4.50;1.53;;;8.40;99.90;;;;;;2616020;54;20482;-72
2023/01/14 12:51:30;;;;;;;3.03;1.10;;;8.60;99.90;;;;;;2616012;54;20407;-74
2023/01/14 12:57:21;;;;;;;2.93;1.07;;;8.50;99.90;;;;;;2616218;54;20387;-74
2023/01/14 13:09:48;;;;;;;2.93;1.67;;;8.60;99.90;;;;;;2613814;54;20391;-74
2023/01/14 13:15:37;;;;;;;4.37;1.23;;;8.60;99.90;;;;;;2615436;54;20411;-73
2023/01/14 13:24:47;;;;;;;3.43;1.23;;;8.60;99.90;;;;;;2615374;39;20792;-73
2023/01/14 13:30:58;;;;;;;2.90;1.73;;;8.60;99.90;;;;;;2614090;54;20130;-74
2023/01/14 13:36:45;;;;;;;4.73;1.50;;;8.50;99.90;;;;;;2613854;54;20414;-73
2023/01/14 13:42:38;;;;;;;2.87;1.00;;;8.60;99.90;;;;;;2613605;54;20159;-74
2023/01/14 13:48:37;;;;;;;3.07;1.30;;;8.70;99.90;;;;;;2613505;31;20895;-74
2023/01/14 13:54:28;;;;;;;1.90;0.90;;;8.70;99.90;;;;;;2614291;54;20428;-73
2023/01/14 14:00:18;;;;;;;3.20;1.27;;;8.70;99.90;;;;;;2613408;54;20452;-74
2023/01/14 14:06:19;;;;;;;7.50;1.10;;;8.80;99.90;;;;;;2617069;31;20835;-74
2023/01/14 14:14:03;;;;;;;2.70;1.20;;;8.80;99.90;;;;;;2615970;54;20383;-73
2023/01/14 14:28:16;;;;;;;2.53;1.00;;;8.80;99.90;;;;;;2616124;54;20431;-74
2023/01/14 14:34:11;;;;;;;2.83;1.10;;;8.90;99.90;;;;;;2616145;54;20394;-73
2023/01/14 14:39:59;;;;;;;2.40;1.13;;;8.90;99.90;;;;;;2616069;54;20403;-75
2023/01/14 14:52:26;;;;;;;2.47;1.40;;;9.00;99.90;;;;;;2617344;54;20412;-75
2023/01/14 14:58:18;;;;;;;2.00;1.10;;;9.00;99.90;;;;;;2616689;39;20679;-74
2023/01/14 15:04:07;;;;;;;2.13;0.90;;;9.00;99.90;;;;;;2616800;54;20935;-73
2023/01/14 15:09:58;;;;;;;2.03;1.13;;;9.00;99.90;;;;;;2617030;54;20382;-74
2023/01/14 15:15:45;;;;;;;4.03;1.00;;;9.10;99.90;;;;;;2616508;54;20382;-73
2023/01/14 15:21:37;;;;;;;2.20;1.10;;;9.00;99.90;;;;;;2616168;54;20157;-73
2023/01/14 15:27:29;;;;;;;3.40;1.47;;;9.00;99.90;;;;;;2616949;54;20443;-73
2023/01/14 15:33:29;;;;;;;2.60;1.30;;;9.00;99.90;;;;;;2616553;54;20428;-73
2023/01/14 15:39:19;;;;;;;2.77;1.27;;;9.00;99.90;;;;;;2616234;31;20846;-73
2023/01/14 15:51:40;;;;;;;3.40;1.57;;;9.20;99.90;;;;;;2616389;54;20387;-73
2023/01/14 15:57:28;;;;;;;3.20;1.53;;;9.50;99.90;;;;;;2616349;54;20370;-74
2023/01/14 16:10:00;;;;;;;2.90;1.50;;;9.70;99.90;;;;;;2617060;54;20503;-74
2023/01/14 16:15:52;;;;;;;8.80;1.63;;;9.70;99.90;;;;;;2617217;54;20428;-74
2023/01/14 16:21:40;;;;;;;2.47;1.00;;;9.80;99.90;;;;;;2616731;54;20413;-74
2023/01/14 16:30:50;;;;;;;1.90;1.00;;;9.80;99.90;;;;;;2616672;46;20964;-73
2023/01/14 16:36:37;;;;;;;3.47;1.83;;;9.80;99.90;;;;;;2616780;54;20119;-73
2023/01/14 16:42:25;;;;;;;3.80;2.33;;;9.80;99.90;;;;;;2616557;54;20122;-74
2023/01/14 16:48:12;;;;;;;4.10;2.07;;;9.90;99.90;;;;;;2617016;39;20527;-73
2023/01/14 16:54:01;;;;;;;5.00;2.70;;;9.90;99.90;;;;;;2616012;54;20118;-73
2023/01/14 16:59:48;;;;;;;3.33;1.80;;;10.00;99.90;;;;;;2615635;54;20374;-73
2023/01/14 17:05:36;;;;;;;2.73;1.10;;;10.10;99.90;;;;;;2617005;54;20136;-73
2023/01/14 17:17:30;;;;;;;2.60;1.60;;;10.00;99.90;;;;;;2616365;54;20371;-73
2023/01/14 17:23:18;;;;;;;5.60;3.73;;;10.10;99.90;;;;;;2615830;54;20187;-73
2023/01/14 17:26:14;;;;;;;4.10;3.10;;;10.10;99.90;;;;;;2615094;54;20426;-74
2023/01/14 17:28:41;;;;;;;4.50;3.13;;;10.30;99.90;;;;;;2615420;54;20143;-73
2023/01/14 17:34:32;;;;;;;2.70;1.37;;;10.30;99.90;;;;;;2615968;39;20802;-73
2023/01/14 17:40:21;;;;;;;4.07;2.53;;;10.50;99.90;;;;;;2616013;54;20379;-73
2023/01/14 17:46:09;;;;;;;4.40;2.50;;;10.40;99.90;;;;;;2614975;54;21398;-73
2023/01/14 17:51:58;;;;;;;2.97;1.50;;;10.60;99.90;;;;;;2615385;54;20159;-73
2023/01/14 17:57:46;;;;;;;4.73;2.63;;;11.00;99.90;;;;;;2615559;54;20375;-73
2023/01/14 18:03:33;;;;;;;3.50;2.60;;;11.30;99.90;;;;;;2613521;54;20147;-72
2023/01/14 18:09:22;;;;;;;2.90;1.90;;;11.30;99.90;;;;;;2615835;39;20551;-73
2023/01/14 18:15:09;;;;;;;2.53;1.57;;;11.60;99.90;;;;;;2614999;54;20118;-72
2023/01/14 18:21:02;;;;;;;2.83;1.87;;;11.60;99.90;;;;;;2614901;54;20383;-72
2023/01/14 18:40:33;;;;;;;4.03;2.60;;;11.80;99.90;;;;;;2613910;54;20374;-71
2023/01/14 18:46:23;;;;;;;2.60;1.40;;;11.90;99.90;;;;;;2614061;54;20408;-72
2023/01/14 18:52:12;;;;;;;2.33;1.10;;;11.90;99.90;;;;;;2614081;54;20371;-71
2023/01/14 18:57:59;;;;;;;2.03;1.10;;;11.70;99.90;;;;;;2613882;54;20383;-72
2023/01/14 19:03:47;;;;;;;1.90;1.00;;;11.80;99.90;;;;;;2614103;54;20780;-72
2023/01/14 19:09:34;;;;;;;1.77;0.50;;;11.70;99.90;;;;;;2614678;54;20395;-71
2023/01/14 19:15:23;;;;;;;2.50;0.87;;;11.50;99.90;;;;;;2615198;54;20661;-70
2023/01/14 19:21:12;;;;;;;2.70;1.20;;;11.30;99.90;;;;;;2614752;54;20387;-71
2023/01/14 19:30:47;;;;;;;5.40;1.10;;;11.30;99.90;;;;;;2615024;54;20404;-71
2023/01/14 19:36:35;;;;;;;2.43;1.10;;;11.10;99.90;;;;;;2615608;54;20387;-71
2023/01/14 19:42:22;;;;;;;2.33;1.00;;;11.10;99.90;;;;;;2615953;54;20383;-71
2023/01/14 19:48:10;;;;;;;1.97;0.83;;;11.10;99.90;;;;;;2615791;54;20125;-73
2023/01/14 19:53:58;;;;;;;3.20;1.73;;;11.30;99.90;;;;;;2615760;31;20572;-72
2023/01/14 19:59:49;;;;;;;3.73;1.67;;;11.30;99.90;;;;;;2616060;39;20552;-73
2023/01/14 20:05:37;;;;;;;2.53;0.90;;;11.20;99.90;;;;;;2615339;54;20418;-73
2023/01/14 20:11:25;;;;;;;1.80;0.93;;;11.20;99.90;;;;;;2615159;54;20138;-73
2023/01/14 20:17:12;;;;;;;6.43;1.10;;;11.30;99.90;;;;;;2616159;31;20632;-72
2023/01/14 20:23:00;;;;;;;1.97;1.10;;;11.20;99.90;;;;;;2615574;54;20157;-73
2023/01/14 20:26:16;;;;;;;1.57;0.60;;;11.10;99.90;;;;;;2615704;54;20941;-72
2023/01/14 20:28:44;;;;;;;1.60;0.80;;;11.10;99.90;;;;;;2616048;39;20522;-72
2023/01/14 20:34:31;;;;;;;2.47;1.10;;;11.00;99.90;;;;;;2615761;54;20367;-73
2023/01/14 20:40:19;;;;;;;2.10;1.13;;;11.00;99.90;;;;;;2616035;54;20668;-73
2023/01/14 20:46:25;;;;;;;2.30;1.10;;;11.00;99.90;;;;;;2615587;54;20134;-73
2023/01/14 20:52:12;;;;;;;2.63;1.60;;;11.00;99.90;;;;;;2615510;54;20503;-73
2023/01/14 20:58:05;;;;;;;2.67;1.67;;;11.00;99.90;;;;;;2615990;54;20126;-73
2023/01/14 21:03:55;;;;;;;4.57;2.13;;;11.00;99.90;;;;;;2615275;54;20516;-73
2023/01/14 21:09:45;;;;;;;6.80;2.10;;;11.00;99.90;;;;;;2615381;54;20383;-73
2023/01/14 21:31:07;;;;;;;5.93;2.97;;;11.00;99.90;;;;;;2613844;54;20366;-72
2023/01/14 21:36:55;;;;;;;3.70;2.70;;;10.80;99.90;;;;;;2614064;54;20135;-72
2023/01/14 21:48:49;;;;;;;3.47;2.50;;;10.90;99.90;;;;;;2612690;54;20411;-71
2023/01/14 21:54:37;;;;;;;4.80;3.00;;;10.90;99.90;;;;;;2612670;54;20134;-72
2023/01/14 22:00:25;;;;;;;5.53;2.83;;;10.70;99.90;;;;;;2615113;54;20175;-71
2023/01/14 22:06:12;;;;;;;5.90;3.40;;;10.60;99.90;;;;;;2613907;54;20251;-71
2023/01/14 22:12:00;;;;;;;7.53;4.20;;;10.50;99.90;;;;;;2615199;54;20138;-72
2023/01/14 22:17:48;;;;;;;4.73;3.10;;;10.40;99.90;;;;;;2614510;54;20130;-73
2023/01/14 22:23:40;;;;;;;5.00;3.00;;;10.30;99.90;;;;;;2614570;54;20149;-72
2023/01/14 22:26:17;;;;;;;9.60;4.63;;;10.20;99.90;;;;;;2615135;54;20415;-73
2023/01/14 22:28:47;;;;;;;7.87;3.90;;;10.20;99.90;;;;;;2612084;54;21194;-72
2023/01/14 22:34:35;;;;;;;6.63;4.27;;;10.20;99.90;;;;;;2612886;54;20367;-72
2023/01/14 22:40:23;;;;;;;4.70;3.57;;;10.10;99.90;;;;;;2614193;54;20263;-72
2023/01/14 22:46:12;;;;;;;3.00;2.20;;;10.00;99.90;;;;;;2613206;54;20662;-71
2023/01/14 22:51:59;;;;;;;12.00;2.87;;;10.20;99.90;;;;;;2613588;54;20409;-72
2023/01/14 22:57:47;;;;;;;5.20;2.97;;;9.90;99.90;;;;;;2614528;39;20584;-72
2023/01/14 23:03:36;;;;;;;6.50;2.60;;;9.40;99.90;;;;;;2613494;54;20140;-73
2023/01/14 23:09:24;;;;;;;4.73;2.73;;;8.90;99.90;;;;;;2615337;39;20762;-73
2023/01/14 23:15:11;;;;;;;5.13;2.20;;;8.20;99.90;;;;;;2614584;54;20515;-73
2023/01/14 23:30:49;;;;;;;8.70;2.33;;;7.00;99.90;;;;;;2612044;54;21220;-72
2023/01/14 23:36:36;;;;;;;3.20;1.90;;;6.80;99.90;;;;;;2614255;54;20366;-73
2023/01/14 23:42:24;;;;;;;7.73;2.43;;;6.70;99.90;;;;;;2614422;54;20133;-73
2023/01/14 23:48:12;;;;;;;7.53;2.50;;;6.70;99.90;;;;;;2615143;54;20154;-73
2023/01/14 23:54:00;;;;;;;5.97;2.93;;;6.60;99.90;;;;;;2613827;54;20130;-73
2023/01/14 23:59:47;;;;;;;5.00;2.40;;;6.50;99.90;;;;;;2615327;54;20422;-72
